Time;durP1;ratioP1;P1;durP2;ratioP2;P2;SDS_P1;SDS_P2;PMS_P1;PMS_P2;Temp;Humidity;BMP_temperature;BMP_pressure;BME280_temperature;BME280_humidity;BME280_pressure;Samples;Min_cycle;Max_cycle;Signal;HPM_P1;HPM_P2
2023/04/29 00:01:09;;;;;;;28.63;19.03;;;13.30;1.00;;;;;;4989748;28;20192;-81
2023/04/29 00:03:35;;;;;;;27.53;20.10;;;13.30;1.00;;;;;;5001198;28;20191;-81
2023/04/29 00:06:02;;;;;;;32.80;20.43;;;13.30;99.90;;;;;;5002822;28;20582;-82
2023/04/29 00:08:28;;;;;;;30.77;20.77;;;13.30;99.90;;;;;;4997514;28;20278;-82
2023/04/29 00:11:03;;;;;;;29.63;21.07;;;13.20;99.90;;;;;;5004394;28;20443;-85
2023/04/29 00:13:28;;;;;;;28.33;21.73;;;13.20;99.90;;;;;;5001742;28;20485;-84
2023/04/29 00:15:54;;;;;;;30.77;21.17;;;13.20;41.20;;;;;;4986695;28;20495;-81
2023/04/29 00:18:20;;;;;;;29.33;20.80;;;13.20;88.30;;;;;;5002499;28;20191;-82
2023/04/29 00:20:45;;;;;;;29.37;20.17;;;13.20;99.90;;;;;;4997294;28;20188;-83
2023/04/29 00:23:11;;;;;;;34.07;22.50;;;13.10;56.10;;;;;;4996683;28;20198;-81
2023/04/29 00:25:49;;;;;;;;;;;;;;;;;;;;;
2023/04/29 00:28:15;;;;;;;31.70;20.60;;;13.10;99.90;;;;;;5002535;28;20651;-82
2023/04/29 00:30:40;;;;;;;31.83;20.93;;;13.10;99.90;;;;;;4996170;28;20463;-82
2023/04/29 00:33:06;;;;;;;34.07;22.47;;;13.10;99.90;;;;;;4981087;28;20565;-82
2023/04/29 00:36:07;;;;;;;35.30;23.47;;;13.00;99.90;;;;;;4996556;28;20263;-81
2023/04/29 00:38:37;;;;;;;38.13;23.30;;;13.00;99.90;;;;;;4978517;28;21444;-80
2023/04/29 00:41:21;;;;;;;36.20;22.87;;;12.90;1.00;;;;;;4981926;28;20791;-81
2023/04/29 00:44:04;;;;;;;38.87;26.37;;;12.90;1.00;;;;;;4999260;28;20458;-81
2023/04/29 00:47:10;;;;;;;39.33;26.33;;;12.80;1.00;;;;;;4982287;28;20435;-82
2023/04/29 00:49:39;;;;;;;37.00;26.30;;;12.70;1.00;;;;;;4998312;28;21023;-80
2023/04/29 00:52:13;;;;;;;38.50;24.70;;;12.60;1.00;;;;;;5003074;28;20434;-81
2023/04/29 00:54:39;;;;;;;41.83;29.53;;;12.60;1.00;;;;;;5003463;28;20450;-80
2023/04/29 00:57:06;;;;;;;37.37;26.70;;;12.50;99.90;;;;;;4982502;28;20436;-83
2023/04/29 00:59:37;;;;;;;42.80;28.30;;;12.50;1.00;;;;;;4997154;28;20431;-82
2023/04/29 01:02:06;;;;;;;43.43;28.17;;;12.40;1.00;;;;;;4984137;28;20439;-81
2023/04/29 01:04:32;;;;;;;45.10;28.47;;;12.40;1.00;;;;;;4979241;28;20516;-81
2023/04/29 01:07:17;;;;;;;44.43;28.07;;;12.30;1.00;;;;;;4995183;28;20525;-84
2023/04/29 01:10:17;;;;;;;44.00;28.57;;;12.30;99.90;;;;;;4984183;28;20210;-81
2023/04/29 01:12:49;;;;;;;44.23;29.17;;;12.30;99.90;;;;;;4993519;28;20430;-81
2023/04/29 01:15:30;;;;;;;45.67;29.57;;;12.20;99.90;;;;;;5000883;28;20450;-83
2023/04/29 01:18:02;;;;;;;42.90;27.37;;;12.20;99.90;;;;;;4979546;28;20438;-81
2023/04/29 01:20:36;;;;;;;48.20;29.60;;;12.20;99.90;;;;;;5001291;28;20434;-81
2023/04/29 01:23:02;;;;;;;44.50;29.43;;;12.20;99.90;;;;;;5000851;28;20472;-80
2023/04/29 01:25:31;;;;;;;48.20;30.73;;;12.20;99.90;;;;;;5001277;28;20455;-80
2023/04/29 01:28:15;;;;;;;45.93;30.70;;;12.20;99.90;;;;;;4977028;28;20462;-80
2023/04/29 01:31:05;;;;;;;50.30;29.73;;;12.20;99.90;;;;;;4997442;28;20447;-79
2023/04/29 01:33:47;;;;;;;44.97;28.07;;;12.20;1.00;;;;;;4982901;28;20450;-81
2023/04/29 01:36:52;;;;;;;47.93;30.27;;;12.20;1.00;;;;;;5003793;28;20450;-79
2023/04/29 01:39:30;;;;;;;52.23;31.03;;;12.20;1.00;;;;;;4983381;28;20449;-81
2023/04/29 01:42:04;;;;;;;59.70;35.60;;;12.30;1.00;;;;;;4982710;28;20450;-79
2023/04/29 01:44:32;;;;;;;55.33;34.00;;;12.30;1.00;;;;;;4997162;28;20845;-81
2023/04/29 01:47:00;;;;;;;60.13;35.10;;;12.30;1.00;;;;;;5002812;28;20507;-82
2023/04/29 01:49:26;;;;;;;63.10;37.63;;;12.30;99.90;;;;;;4975095;28;20477;-79
2023/04/29 01:51:52;;;;;;;66.73;38.03;;;12.30;99.90;;;;;;5002212;28;20522;-82
2023/04/29 01:54:17;;;;;;;70.33;39.70;;;12.30;99.90;;;;;;5000858;28;20832;-83
2023/04/29 01:56:43;;;;;;;74.83;41.93;;;12.30;99.90;;;;;;4977583;28;21578;-81
2023/04/29 01:59:09;;;;;;;79.87;40.57;;;12.30;99.90;;;;;;5001010;28;20191;-81
2023/04/29 02:01:35;;;;;;;82.00;41.43;;;12.20;99.90;;;;;;4994400;28;20936;-81
2023/04/29 02:04:00;;;;;;;78.80;42.67;;;12.20;1.00;;;;;;5001480;28;20469;-81
2023/04/29 02:06:26;;;;;;;84.27;43.80;;;12.10;1.00;;;;;;4987040;28;20200;-80
2023/04/29 02:08:52;;;;;;;92.67;46.17;;;12.10;1.00;;;;;;4991430;28;20297;-81
2023/04/29 02:11:18;;;;;;;81.43;43.60;;;12.10;1.00;;;;;;5001759;28;20474;-80
2023/04/29 02:13:43;;;;;;;89.20;44.97;;;12.10;1.00;;;;;;4991686;28;20232;-80
2023/04/29 02:16:13;;;;;;;96.43;47.10;;;12.10;1.00;;;;;;5001276;28;20210;-81
2023/04/29 02:18:39;;;;;;;96.73;49.80;;;12.10;1.00;;;;;;5000329;28;20341;-81
2023/04/29 02:21:06;;;;;;;95.67;50.63;;;12.10;1.00;;;;;;5001525;28;20446;-81
2023/04/29 02:23:32;;;;;;;93.90;50.70;;;12.00;1.00;;;;;;4982934;28;20449;-81
2023/04/29 02:25:58;;;;;;;99.10;51.90;;;12.00;5.00;;;;;;5001866;28;20442;-82
2023/04/29 02:28:23;;;;;;;104.90;48.80;;;11.90;99.90;;;;;;4991249;28;20975;-81
2023/04/29 02:30:49;;;;;;;91.63;49.37;;;11.90;99.90;;;;;;5000661;28;20198;-81
2023/04/29 02:33:15;;;;;;;95.93;51.30;;;11.90;99.90;;;;;;4996869;28;20195;-81
2023/04/29 02:35:40;;;;;;;83.20;47.70;;;11.90;99.90;;;;;;4983371;28;20199;-81
2023/04/29 02:38:06;;;;;;;92.90;46.47;;;12.00;99.90;;;;;;5000873;28;20258;-81
2023/04/29 02:40:32;;;;;;;84.80;48.37;;;12.00;99.90;;;;;;5001681;28;21201;-81
2023/04/29 02:42:57;;;;;;;94.00;48.00;;;12.00;93.90;;;;;;4997497;28;20195;-81
2023/04/29 02:45:23;;;;;;;84.47;46.73;;;11.90;18.90;;;;;;4997092;28;20227;-81
2023/04/29 02:47:48;;;;;;;97.80;49.23;;;11.90;11.20;;;;;;4980783;28;20607;-81
2023/04/29 02:50:14;;;;;;;88.40;48.30;;;11.80;26.40;;;;;;4993491;28;20195;-83
2023/04/29 02:52:40;;;;;;;85.07;45.43;;;11.80;62.20;;;;;;4999830;28;20191;-81
2023/04/29 02:55:06;;;;;;;90.60;44.73;;;11.70;99.90;;;;;;5001202;28;20275;-81
2023/04/29 02:57:32;;;;;;;90.83;44.13;;;11.70;99.90;;;;;;5000827;28;20434;-81
2023/04/29 02:59:58;;;;;;;102.10;48.30;;;11.70;99.90;;;;;;4998997;28;20567;-81
2023/04/29 03:02:23;;;;;;;99.13;43.30;;;11.70;99.90;;;;;;4998752;28;20245;-82
2023/04/29 03:04:49;;;;;;;87.93;41.07;;;11.70;99.90;;;;;;5003740;28;20512;-81
2023/04/29 03:07:16;;;;;;;84.97;39.20;;;11.70;99.90;;;;;;4986084;28;20195;-82
2023/04/29 03:09:41;;;;;;;88.80;39.77;;;11.70;99.90;;;;;;4997995;28;20222;-81
2023/04/29 03:12:07;;;;;;;91.43;38.80;;;11.60;99.90;;;;;;5002865;28;20810;-81
2023/04/29 03:14:32;;;;;;;86.77;38.20;;;11.60;99.90;;;;;;4983730;28;20208;-82
2023/04/29 03:16:58;;;;;;;90.83;38.70;;;11.50;99.90;;;;;;5000566;28;20207;-81
2023/04/29 03:19:24;;;;;;;102.03;40.70;;;11.50;99.90;;;;;;5003500;28;20275;-80
2023/04/29 03:21:49;;;;;;;87.20;35.57;;;11.40;99.90;;;;;;5004434;28;20179;-82
2023/04/29 03:24:15;;;;;;;84.00;37.07;;;11.30;99.90;;;;;;4996557;28;20212;-82
2023/04/29 03:26:41;;;;;;;100.73;39.50;;;11.30;99.90;;;;;;5000657;28;20196;-81
2023/04/29 03:29:07;;;;;;;88.67;37.90;;;11.30;1.00;;;;;;5002490;28;20226;-82
2023/04/29 03:31:33;;;;;;;93.43;39.67;;;11.20;1.00;;;;;;5001948;28;20458;-81
2023/04/29 03:33:59;;;;;;;80.10;37.13;;;11.10;1.00;;;;;;5002793;28;20553;-79
2023/04/29 03:36:24;;;;;;;79.40;36.17;;;11.10;1.00;;;;;;5000991;28;20600;-82
2023/04/29 03:38:50;;;;;;;69.03;36.27;;;11.10;1.00;;;;;;4995744;28;20204;-81
2023/04/29 03:41:16;;;;;;;73.57;35.27;;;11.10;1.00;;;;;;5004101;28;20192;-83
2023/04/29 03:43:43;;;;;;;74.60;38.27;;;11.10;1.00;;;;;;4996052;28;20722;-81
2023/04/29 03:46:09;;;;;;;75.43;36.77;;;11.10;1.00;;;;;;5004252;28;20805;-80
2023/04/29 03:48:35;;;;;;;69.80;36.07;;;11.10;1.00;;;;;;4995547;28;20454;-82
2023/04/29 03:51:01;;;;;;;76.60;35.87;;;11.00;1.00;;;;;;4985582;28;20834;-81
2023/04/29 03:53:26;;;;;;;78.03;36.80;;;11.00;1.00;;;;;;4999204;28;20478;-80
2023/04/29 03:55:52;;;;;;;69.23;34.37;;;11.00;1.00;;;;;;4999751;28;20236;-81
2023/04/29 03:58:17;;;;;;;62.30;33.20;;;11.00;1.00;;;;;;4998084;28;20211;-81
2023/04/29 04:00:43;;;;;;;52.80;29.87;;;11.00;1.00;;;;;;5001124;28;20176;-81
2023/04/29 04:03:08;;;;;;;59.00;28.30;;;11.00;1.00;;;;;;5000841;28;20188;-81
2023/04/29 04:05:34;;;;;;;51.60;27.70;;;11.10;99.90;;;;;;5002276;28;20279;-81
2023/04/29 04:08:00;;;;;;;49.03;27.40;;;11.10;99.90;;;;;;4994335;28;20191;-80
2023/04/29 04:10:27;;;;;;;56.13;27.00;;;11.10;99.90;;;;;;4991081;28;20188;-81
2023/04/29 04:12:52;;;;;;;50.27;25.97;;;11.20;99.90;;;;;;4991940;28;20207;-80
2023/04/29 04:15:18;;;;;;;49.87;26.53;;;11.20;99.90;;;;;;4996345;28;20496;-81
2023/04/29 04:17:43;;;;;;;49.07;26.80;;;11.20;99.90;;;;;;4986672;28;20593;-82
2023/04/29 04:20:09;;;;;;;53.80;27.90;;;11.20;99.90;;;;;;4968016;28;20215;-82
2023/04/29 04:22:35;;;;;;;64.57;33.10;;;11.30;99.90;;;;;;4987141;28;20264;-81
2023/04/29 04:25:01;;;;;;;57.43;30.60;;;11.30;99.90;;;;;;4991819;28;20900;-80
2023/04/29 04:27:26;;;;;;;56.63;28.50;;;11.30;99.90;;;;;;4994402;28;20684;-81
2023/04/29 04:29:55;;;;;;;70.90;35.87;;;11.20;99.90;;;;;;4995450;28;20462;-81
2023/04/29 04:32:22;;;;;;;65.30;34.27;;;11.20;1.00;;;;;;4995834;28;20203;-81
2023/04/29 04:34:48;;;;;;;60.60;30.67;;;11.20;1.00;;;;;;4993705;28;20542;-81
2023/04/29 04:37:13;;;;;;;53.00;29.40;;;11.10;1.00;;;;;;4978832;28;20478;-81
2023/04/29 04:39:39;;;;;;;51.07;28.70;;;11.10;1.00;;;;;;4989338;28;20478;-81
2023/04/29 04:42:05;;;;;;;62.93;29.20;;;11.00;1.00;;;;;;4976896;28;20183;-78
2023/04/29 04:44:31;;;;;;;64.50;30.20;;;11.00;1.00;;;;;;4994792;28;20196;-79
2023/04/29 04:46:56;;;;;;;58.07;29.70;;;11.00;1.00;;;;;;4996109;28;20434;-81
2023/04/29 04:49:25;;;;;;;55.77;30.93;;;11.00;1.00;;;;;;4994744;28;20204;-81
2023/04/29 04:51:50;;;;;;;59.57;29.93;;;11.00;1.00;;;;;;4995782;28;20218;-81
2023/04/29 04:54:16;;;;;;;50.73;28.90;;;11.00;1.00;;;;;;4972436;28;20455;-82
2023/04/29 04:56:41;;;;;;;53.50;27.90;;;11.00;1.00;;;;;;4994884;28;20279;-81
2023/04/29 04:59:07;;;;;;;56.70;30.83;;;11.00;1.00;;;;;;4991216;28;20227;-81
2023/04/29 05:01:33;;;;;;;59.60;30.10;;;11.00;1.00;;;;;;4993018;28;20198;-81
2023/04/29 05:03:59;;;;;;;56.10;26.80;;;11.00;1.00;;;;;;4989805;28;20211;-82
2023/04/29 05:06:25;;;;;;;56.20;26.87;;;11.00;1.00;;;;;;4992675;28;20267;-82
2023/04/29 05:08:50;;;;;;;49.53;26.63;;;11.00;1.00;;;;;;4985210;28;20562;-81
2023/04/29 05:11:17;;;;;;;49.77;25.27;;;11.00;1.00;;;;;;4966362;28;20434;-81
2023/04/29 05:13:43;;;;;;;43.87;22.87;;;11.00;1.00;;;;;;4990710;28;20233;-81
2023/04/29 05:16:08;;;;;;;40.03;22.57;;;11.00;1.00;;;;;;4993136;28;20462;-81
2023/04/29 05:18:34;;;;;;;40.80;22.00;;;11.00;1.00;;;;;;4992271;28;20218;-81
2023/04/29 05:20:59;;;;;;;41.47;23.03;;;11.10;1.00;;;;;;4995706;28;20674;-82
2023/04/29 05:23:25;;;;;;;41.33;21.57;;;11.10;1.00;;;;;;4993659;28;20198;-80
2023/04/29 05:25:50;;;;;;;43.33;21.30;;;11.10;1.00;;;;;;4995267;28;20187;-82
2023/04/29 05:28:16;;;;;;;40.03;21.03;;;11.10;1.00;;;;;;4995103;28;20187;-81
2023/04/29 05:30:42;;;;;;;36.73;20.57;;;11.10;1.00;;;;;;4995891;28;20188;-81
2023/04/29 05:33:07;;;;;;;41.50;23.10;;;11.10;1.00;;;;;;4992262;28;20223;-81
2023/04/29 05:35:33;;;;;;;35.03;21.37;;;11.20;1.00;;;;;;4974911;28;21072;-80
2023/04/29 05:37:59;;;;;;;34.83;21.40;;;11.20;1.00;;;;;;4993810;28;20186;-81
2023/04/29 05:40:24;;;;;;;34.13;22.20;;;11.30;1.00;;;;;;4994345;28;20654;-82
2023/04/29 05:42:50;;;;;;;37.40;20.93;;;11.30;1.00;;;;;;4992585;28;20279;-82
2023/04/29 05:45:16;;;;;;;36.43;20.57;;;11.30;1.00;;;;;;4993154;28;20207;-80
2023/04/29 05:47:41;;;;;;;38.80;22.23;;;11.30;99.90;;;;;;4993063;28;20459;-81
2023/04/29 05:50:07;;;;;;;36.87;21.87;;;11.30;99.90;;;;;;4994874;28;20626;-81
2023/04/29 05:52:32;;;;;;;34.27;21.27;;;11.30;99.90;;;;;;4987184;28;20196;-80
2023/04/29 05:54:58;;;;;;;37.43;21.43;;;11.30;99.90;;;;;;4986876;28;20756;-81
2023/04/29 05:57:24;;;;;;;36.33;20.13;;;11.30;99.90;;;;;;4988021;28;20183;-82
2023/04/29 05:59:49;;;;;;;33.27;20.40;;;11.30;99.90;;;;;;4993874;28;20216;-83
2023/04/29 06:02:15;;;;;;;32.33;19.93;;;11.30;99.90;;;;;;4994380;28;20815;-82
2023/04/29 06:04:40;;;;;;;38.37;21.60;;;11.30;99.90;;;;;;4971613;28;20203;-82
2023/04/29 06:07:07;;;;;;;39.97;21.00;;;11.30;99.90;;;;;;4990472;28;20262;-81
2023/04/29 06:09:34;;;;;;;32.87;18.87;;;11.40;99.90;;;;;;4991131;28;20187;-82
2023/04/29 06:12:00;;;;;;;29.97;20.13;;;11.50;99.90;;;;;;4983757;28;20812;-82
2023/04/29 06:14:25;;;;;;;32.00;19.00;;;11.50;99.90;;;;;;4992326;28;20467;-82
2023/04/29 06:16:52;;;;;;;32.90;19.80;;;11.60;99.90;;;;;;4993099;28;20238;-82
2023/04/29 06:19:18;;;;;;;32.07;18.77;;;11.70;99.90;;;;;;4993137;28;21166;-82
2023/04/29 06:21:43;;;;;;;30.27;19.83;;;11.80;99.90;;;;;;4989204;28;20442;-81
2023/04/29 06:24:09;;;;;;;31.43;17.33;;;11.80;99.90;;;;;;4975993;28;20269;-82
2023/04/29 06:26:35;;;;;;;26.07;17.60;;;11.90;99.90;;;;;;4994212;28;20261;-82
2023/04/29 06:29:01;;;;;;;26.10;17.03;;;12.00;84.70;;;;;;4992383;28;20194;-84
2023/04/29 06:31:26;;;;;;;24.77;18.10;;;12.00;43.50;;;;;;4975608;28;20954;-82
2023/04/29 06:33:52;;;;;;;22.90;15.33;;;12.00;2.80;;;;;;4986874;28;20226;-82
2023/04/29 06:36:17;;;;;;;26.67;16.87;;;12.10;1.00;;;;;;4991531;28;20183;-81
2023/04/29 06:38:43;;;;;;;25.40;17.17;;;12.10;1.00;;;;;;4992381;28;20211;-83
2023/04/29 06:41:09;;;;;;;31.40;17.73;;;12.30;1.00;;;;;;4990209;28;20184;-81
2023/04/29 06:43:37;;;;;;;22.80;16.27;;;12.30;1.00;;;;;;4988051;28;20250;-82
2023/04/29 06:46:02;;;;;;;26.43;15.80;;;12.40;1.00;;;;;;4989635;28;20270;-82
2023/04/29 06:48:28;;;;;;;24.67;16.20;;;12.40;99.90;;;;;;4998045;28;20995;-83
2023/04/29 06:50:56;;;;;;;24.80;16.13;;;12.50;99.90;;;;;;4999427;28;20196;-82
2023/04/29 06:53:22;;;;;;;25.07;16.50;;;12.50;99.90;;;;;;5004847;28;20188;-82
2023/04/29 06:55:48;;;;;;;24.00;14.33;;;12.60;1.30;;;;;;5002601;28;20469;-82
2023/04/29 06:58:18;;;;;;;24.93;16.90;;;12.60;1.00;;;;;;4987816;28;20459;-83
2023/04/29 07:00:45;;;;;;;23.70;16.43;;;12.60;1.00;;;;;;4988957;28;20442;-83
2023/04/29 07:03:11;;;;;;;22.97;16.37;;;12.60;99.90;;;;;;4987247;28;20435;-82
2023/04/29 07:05:40;;;;;;;27.47;16.80;;;12.60;91.70;;;;;;5004596;28;20464;-85
2023/04/29 07:08:06;;;;;;;23.60;15.93;;;12.50;66.50;;;;;;5003264;28;20187;-84
2023/04/29 07:10:32;;;;;;;23.67;16.17;;;12.50;93.00;;;;;;5002021;28;20505;-79
2023/04/29 07:12:59;;;;;;;22.57;14.60;;;12.50;99.90;;;;;;4999922;28;20462;-84
2023/04/29 07:15:25;;;;;;;24.50;16.73;;;12.50;91.10;;;;;;5002195;28;20206;-80
2023/04/29 07:17:51;;;;;;;25.77;17.80;;;12.50;1.00;;;;;;4980419;28;20457;-82
2023/04/29 07:20:17;;;;;;;29.60;17.80;;;12.60;1.00;;;;;;5004816;28;20520;-82
2023/04/29 07:22:44;;;;;;;28.83;19.47;;;12.60;1.00;;;;;;5003007;28;20247;-84
2023/04/29 07:25:10;;;;;;;34.87;22.77;;;12.70;1.00;;;;;;4996968;28;20873;-83
2023/04/29 07:27:36;;;;;;;35.60;22.67;;;12.80;99.90;;;;;;4988605;28;20430;-82
2023/04/29 07:30:03;;;;;;;31.60;21.70;;;12.90;1.00;;;;;;4994917;28;20718;-82
2023/04/29 07:32:32;;;;;;;28.53;21.30;;;13.00;1.00;;;;;;5004490;28;20449;-83
2023/04/29 07:34:58;;;;;;;27.87;17.93;;;13.00;1.00;;;;;;5004514;28;20466;-83
2023/04/29 07:37:24;;;;;;;28.60;19.07;;;13.00;99.90;;;;;;5004884;28;20940;-82
2023/04/29 07:39:50;;;;;;;22.73;15.50;;;13.00;99.90;;;;;;5001062;28;20478;-81
2023/04/29 07:42:15;;;;;;;25.77;17.03;;;12.90;1.00;;;;;;4997061;28;20569;-82
2023/04/29 07:44:52;;;;;;;24.60;14.77;;;12.90;1.00;;;;;;5004191;28;20215;-83
2023/04/29 07:47:18;;;;;;;22.80;15.60;;;12.90;1.00;;;;;;4994679;28;20226;-81
2023/04/29 07:50:09;;;;;;;21.80;14.90;;;12.80;99.90;;;;;;5001704;28;20458;-81
2023/04/29 07:52:37;;;;;;;20.23;16.10;;;12.80;99.90;;;;;;4986134;28;20203;-84
2023/04/29 07:55:12;;;;;;;24.17;16.10;;;12.80;99.90;;;;;;4981334;28;22222;-83
2023/04/29 07:57:52;;;;;;;20.60;14.80;;;12.90;1.00;;;;;;4976731;28;20449;-81
2023/04/29 08:00:17;;;;;;;22.57;14.90;;;12.80;99.90;;;;;;4981395;28;20472;-82
2023/04/29 08:02:55;;;;;;;23.47;16.03;;;12.80;99.90;;;;;;4997668;28;20436;-80
2023/04/29 08:05:29;;;;;;;25.23;15.80;;;12.80;99.90;;;;;;4998397;28;20446;-82
2023/04/29 08:11:07;;;;;;;24.43;14.63;;;12.90;1.00;;;;;;4996043;28;20599;-83
2023/04/29 08:13:42;;;;;;;21.70;15.73;;;12.90;1.00;;;;;;5000252;28;20777;-82
2023/04/29 08:19:10;;;;;;;27.33;16.50;;;12.90;1.00;;;;;;5003166;28;20577;-82
2023/04/29 08:21:36;;;;;;;23.93;15.10;;;12.90;1.00;;;;;;4980906;28;20442;-79
2023/04/29 08:24:02;;;;;;;23.93;16.90;;;12.90;1.00;;;;;;5000034;28;20882;-80
2023/04/29 08:26:27;;;;;;;23.33;16.23;;;12.90;1.00;;;;;;4998116;28;20187;-80
2023/04/29 08:28:53;;;;;;;27.70;18.27;;;12.90;1.00;;;;;;4999611;28;20211;-79
2023/04/29 08:31:23;;;;;;;26.90;17.00;;;12.90;1.00;;;;;;4997053;28;20188;-80
2023/04/29 08:33:54;;;;;;;26.53;16.53;;;13.00;1.00;;;;;;4995635;28;20285;-79
2023/04/29 08:36:20;;;;;;;19.60;14.00;;;13.10;1.00;;;;;;4999449;28;20464;-83
2023/04/29 08:38:47;;;;;;;27.17;15.90;;;13.30;39.70;;;;;;4997160;28;20476;-83
2023/04/29 08:41:15;;;;;;;22.93;16.90;;;13.50;1.00;;;;;;4996956;28;20271;-82
2023/04/29 08:43:43;;;;;;;24.33;16.20;;;13.70;1.00;;;;;;5000289;28;20439;-81
2023/04/29 08:46:09;;;;;;;32.63;16.50;;;14.10;99.90;;;;;;4965238;28;20452;-84
2023/04/29 08:48:39;;;;;;;22.60;15.50;;;14.50;1.00;;;;;;4989103;28;20489;-81
2023/04/29 08:51:06;;;;;;;22.27;16.70;;;15.10;1.00;;;;;;4996917;28;20463;-81
2023/04/29 08:53:31;;;;;;;19.50;14.63;;;15.80;99.90;;;;;;4992076;28;20466;-81
2023/04/29 08:56:06;;;;;;;21.80;14.10;;;16.50;1.00;;;;;;4997964;28;20504;-84
2023/04/29 08:58:35;;;;;;;17.67;13.63;;;16.90;1.00;;;;;;4999983;28;20280;-83
2023/04/29 09:01:01;;;;;;;15.73;12.93;;;17.30;1.00;;;;;;5001606;28;20430;-81
2023/04/29 09:03:35;;;;;;;18.70;13.80;;;17.90;99.90;;;;;;5001990;28;20919;-80
2023/04/29 09:06:02;;;;;;;17.83;12.00;;;18.40;99.90;;;;;;4995053;28;20437;-81
2023/04/29 09:08:28;;;;;;;16.27;13.20;;;18.70;99.90;;;;;;4999120;28;20504;-82
2023/04/29 09:10:55;;;;;;;16.40;12.93;;;19.00;99.90;;;;;;5000635;28;20442;-82
2023/04/29 09:13:25;;;;;;;17.50;13.30;;;19.50;99.90;;;;;;4978496;28;20482;-82
2023/04/29 09:15:51;;;;;;;16.70;14.40;;;19.70;99.90;;;;;;4979256;28;20451;-80
2023/04/29 09:18:45;;;;;;;14.83;13.17;;;20.30;99.90;;;;;;4998498;28;20547;-81
2023/04/29 09:21:24;;;;;;;18.40;14.53;;;20.40;99.90;;;;;;4994250;28;20194;-81
2023/04/29 09:23:54;;;;;;;16.33;13.27;;;20.20;99.90;;;;;;4987318;28;20552;-81
2023/04/29 09:26:21;;;;;;;15.87;12.73;;;19.80;99.90;;;;;;4983470;28;20437;-81
2023/04/29 09:28:48;;;;;;;17.20;15.30;;;19.10;99.90;;;;;;4998064;28;20495;-82
2023/04/29 09:31:14;;;;;;;15.00;13.27;;;18.40;99.90;;;;;;4980758;28;20501;-80
2023/04/29 09:33:57;;;;;;;17.53;14.03;;;17.90;99.90;;;;;;4990950;28;20475;-80
2023/04/29 09:36:58;;;;;;;14.73;12.17;;;17.40;99.90;;;;;;4996320;28;20425;-81
2023/04/29 09:39:25;;;;;;;18.00;14.13;;;16.90;99.90;;;;;;4923374;29;20480;-80
2023/04/29 09:41:53;;;;;;;13.73;11.70;;;16.60;99.90;;;;;;4965772;28;20502;-81
2023/04/29 09:44:30;;;;;;;15.17;11.40;;;16.50;99.90;;;;;;4998903;28;20470;-81
2023/04/29 09:47:05;;;;;;;16.17;12.80;;;16.50;99.90;;;;;;4976816;28;20864;-82
2023/04/29 09:49:36;;;;;;;17.83;13.67;;;16.40;99.90;;;;;;4995092;28;20478;-79
2023/04/29 09:52:12;;;;;;;16.80;12.80;;;16.30;99.90;;;;;;4992511;28;20482;-80
2023/04/29 09:54:39;;;;;;;15.70;13.70;;;16.10;99.90;;;;;;4978449;28;20472;-81
2023/04/29 09:57:07;;;;;;;16.33;13.60;;;16.00;99.90;;;;;;4983991;28;20452;-81
2023/04/29 09:59:38;;;;;;;19.83;13.80;;;15.90;99.90;;;;;;4968014;28;20469;-81
2023/04/29 10:02:16;;;;;;;16.90;13.60;;;15.80;99.90;;;;;;4992717;28;20450;-80
2023/04/29 10:04:44;;;;;;;21.20;16.30;;;15.80;99.90;;;;;;5004075;28;20465;-81
2023/04/29 10:07:15;;;;;;;19.40;15.40;;;15.80;99.90;;;;;;5000914;28;20442;-82
2023/04/29 10:09:41;;;;;;;23.10;16.90;;;15.90;99.90;;;;;;4986774;28;20512;-83
2023/04/29 10:12:07;;;;;;;19.67;15.07;;;16.00;99.90;;;;;;5006139;28;20878;-82
2023/04/29 10:14:43;;;;;;;22.53;14.73;;;16.20;99.90;;;;;;5004142;28;20235;-81
2023/04/29 10:17:23;;;;;;;20.50;14.97;;;16.30;99.90;;;;;;4968997;28;20530;-81
2023/04/29 10:20:00;;;;;;;18.80;14.97;;;16.40;99.90;;;;;;4984196;28;20952;-82
2023/04/29 10:22:32;;;;;;;23.57;17.53;;;16.70;99.90;;;;;;4988134;28;20416;-84
2023/04/29 10:25:00;;;;;;;25.13;15.33;;;17.00;99.90;;;;;;4989183;28;21086;-82
2023/04/29 10:27:27;;;;;;;23.50;16.67;;;17.10;99.90;;;;;;5005456;28;20439;-81
2023/04/29 10:29:55;;;;;;;25.90;18.57;;;17.10;99.90;;;;;;4999370;28;20478;-83
2023/04/29 10:32:21;;;;;;;24.67;18.97;;;17.10;99.90;;;;;;5005072;28;20436;-81
2023/04/29 10:34:48;;;;;;;23.87;17.87;;;17.00;99.90;;;;;;5002861;28;20463;-82
2023/04/29 10:37:15;;;;;;;24.47;19.53;;;17.00;99.90;;;;;;4995858;28;20478;-81
2023/04/29 10:40:07;;;;;;;26.13;17.90;;;17.10;99.90;;;;;;5004995;28;20468;-81
2023/04/29 10:42:51;;;;;;;26.67;19.30;;;17.20;99.90;;;;;;4982677;28;20938;-82
2023/04/29 10:45:27;;;;;;;28.67;19.53;;;17.30;99.90;;;;;;4999495;28;20480;-81
2023/04/29 10:48:04;;;;;;;25.50;18.93;;;17.40;99.90;;;;;;4998871;28;20431;-83
2023/04/29 10:50:31;;;;;;;30.77;19.67;;;17.50;99.90;;;;;;4998565;28;20440;-82
2023/04/29 10:52:57;;;;;;;25.67;18.90;;;17.70;99.90;;;;;;4983878;28;20500;-83
2023/04/29 10:55:46;;;;;;;29.30;20.87;;;17.70;99.90;;;;;;4998720;28;21067;-81
2023/04/29 10:58:35;;;;;;;27.90;21.30;;;17.80;99.90;;;;;;4987040;28;21163;-82
2023/04/29 11:01:22;;;;;;;27.20;19.23;;;17.70;99.90;;;;;;5003854;28;20429;-81
2023/04/29 11:04:05;;;;;;;26.63;21.40;;;17.50;99.90;;;;;;5004665;28;20478;-83
2023/04/29 11:06:34;;;;;;;27.63;22.50;;;17.30;99.90;;;;;;5005095;28;20431;-81
2023/04/29 11:09:32;;;;;;;30.30;22.00;;;17.20;99.90;;;;;;5005355;28;20467;-82
2023/04/29 11:12:07;;;;;;;32.83;21.57;;;17.00;99.90;;;;;;4996724;28;20443;-83
2023/04/29 11:14:39;;;;;;;29.33;22.50;;;17.00;99.90;;;;;;5001926;28;20461;-84
2023/04/29 11:17:16;;;;;;;27.73;20.43;;;17.00;99.90;;;;;;5006311;28;20470;-83
2023/04/29 11:19:50;;;;;;;31.20;18.60;;;17.00;99.90;;;;;;5008228;28;20467;-84
2023/04/29 11:22:20;;;;;;;29.07;20.17;;;17.00;99.90;;;;;;5008187;28;20448;-81
2023/04/29 11:25:10;;;;;;;26.00;18.57;;;17.10;99.90;;;;;;5007633;28;20471;-83
2023/04/29 11:27:37;;;;;;;24.73;18.87;;;17.10;99.90;;;;;;5007394;28;20432;-83
2023/04/29 11:30:05;;;;;;;31.40;20.10;;;17.10;99.90;;;;;;4997408;28;20478;-81
2023/04/29 11:32:34;;;;;;;30.20;20.77;;;17.00;99.90;;;;;;5004897;28;20459;-82
2023/04/29 11:35:15;;;;;;;25.00;19.33;;;17.00;99.90;;;;;;5004413;28;20535;-82
2023/04/29 11:37:42;;;;;;;26.03;17.90;;;17.00;99.90;;;;;;5008140;28;20474;-82
2023/04/29 11:40:09;;;;;;;27.00;20.83;;;17.00;99.90;;;;;;4989122;28;20430;-81
2023/04/29 11:42:39;;;;;;;25.97;19.23;;;16.90;99.90;;;;;;5008130;28;20454;-81
2023/04/29 11:45:05;;;;;;;22.90;18.03;;;16.90;99.90;;;;;;4992027;28;20471;-81
2023/04/29 11:47:31;;;;;;;28.00;17.80;;;17.00;99.90;;;;;;5006788;28;20457;-82
2023/04/29 11:50:07;;;;;;;25.53;19.07;;;17.10;99.90;;;;;;4987100;28;21054;-82
2023/04/29 11:52:36;;;;;;;27.77;19.73;;;17.30;99.90;;;;;;4987672;28;20182;-82
2023/04/29 11:55:05;;;;;;;25.17;19.43;;;17.40;99.90;;;;;;4999485;28;20464;-82
2023/04/29 11:57:31;;;;;;;26.93;19.50;;;17.40;99.90;;;;;;5002049;28;20462;-81
2023/04/29 11:59:58;;;;;;;26.20;19.93;;;17.50;99.90;;;;;;5001054;28;20444;-81
2023/04/29 12:02:30;;;;;;;26.37;19.67;;;17.50;99.90;;;;;;4982786;28;20197;-80
2023/04/29 12:04:56;;;;;;;28.80;20.00;;;17.60;99.90;;;;;;5000059;28;20535;-82
2023/04/29 12:07:23;;;;;;;21.43;18.80;;;17.60;99.90;;;;;;4998930;28;20461;-80
2023/04/29 12:09:51;;;;;;;25.37;19.17;;;17.70;99.90;;;;;;4999733;28;20464;-80
2023/04/29 12:12:17;;;;;;;34.37;19.77;;;17.70;99.90;;;;;;4999444;28;20445;-81
2023/04/29 12:14:43;;;;;;;28.03;20.43;;;17.70;99.90;;;;;;4998507;28;20459;-80
2023/04/29 12:17:09;;;;;;;31.03;19.17;;;17.80;99.90;;;;;;4981638;28;20218;-80
2023/04/29 12:19:37;;;;;;;23.70;18.70;;;17.90;99.90;;;;;;4982628;28;20447;-82
2023/04/29 12:22:03;;;;;;;24.87;19.23;;;18.00;99.90;;;;;;4999888;28;20464;-81
2023/04/29 12:24:35;;;;;;;24.60;19.60;;;18.00;99.90;;;;;;4999306;28;20453;-82
2023/04/29 12:27:01;;;;;;;27.03;20.90;;;18.20;99.90;;;;;;4981180;28;20452;-82
2023/04/29 12:29:27;;;;;;;25.10;19.97;;;18.40;99.90;;;;;;5000305;28;20489;-82
2023/04/29 12:32:28;;;;;;;26.23;19.53;;;18.80;99.90;;;;;;5000618;28;20421;-82
2023/04/29 12:34:54;;;;;;;22.20;18.97;;;19.10;99.90;;;;;;4995437;28;20202;-82
2023/04/29 12:37:22;;;;;;;26.03;19.57;;;19.60;99.90;;;;;;5006042;28;20456;-83
2023/04/29 12:39:49;;;;;;;22.20;17.33;;;19.90;99.90;;;;;;5004267;28;20473;-81
2023/04/29 12:42:18;;;;;;;19.40;17.40;;;20.20;99.90;;;;;;5005276;28;20474;-82
2023/04/29 12:44:46;;;;;;;23.50;17.50;;;20.40;99.90;;;;;;5006887;28;20486;-82
2023/04/29 12:47:12;;;;;;;21.00;18.40;;;20.60;99.90;;;;;;5006072;28;20470;-82